sensor_id;sensor_type;location;lat;lon;timestamp;P1;durP1;ratioP1;P2;durP2;ratioP2
17141;SDS011;32805;53.556;9.944;2022-12-08T00:01:21;20.85;;;14.20;;
17141;SDS011;32805;53.556;9.944;2022-12-08T00:03:50;20.30;;;14.02;;
17141;SDS011;32805;53.556;9.944;2022-12-08T00:06:23;17.95;;;13.18;;
17141;SDS011;32805;53.556;9.944;2022-12-08T00:09:14;19.75;;;13.13;;
17141;SDS011;32805;53.556;9.944;2022-12-08T00:11:52;18.10;;;13.07;;
17141;SDS011;32805;53.556;9.944;2022-12-08T00:14:25;20.50;;;13.48;;
17141;SDS011;32805;53.556;9.944;2022-12-08T00:16:55;18.83;;;12.65;;
17141;SDS011;32805;53.556;9.944;2022-12-08T00:19:23;18.88;;;13.98;;
17141;SDS011;32805;53.556;9.944;2022-12-08T00:21:52;22.30;;;14.35;;
17141;SDS011;32805;53.556;9.944;2022-12-08T00:24:20;20.60;;;14.93;;
17141;SDS011;32805;53.556;9.944;2022-12-08T00:26:49;21.73;;;14.60;;
17141;SDS011;32805;53.556;9.944;2022-12-08T00:29:19;19.05;;;13.98;;
17141;SDS011;32805;53.556;9.944;2022-12-08T00:31:46;16.90;;;12.43;;
17141;SDS011;32805;53.556;9.944;2022-12-08T00:34:14;17.70;;;12.90;;
17141;SDS011;32805;53.556;9.944;2022-12-08T00:36:43;19.00;;;13.60;;
17141;SDS011;32805;53.556;9.944;2022-12-08T00:39:11;20.60;;;12.73;;
17141;SDS011;32805;53.556;9.944;2022-12-08T00:41:40;18.77;;;13.05;;
17141;SDS011;32805;53.556;9.944;2022-12-08T00:44:26;16.63;;;12.52;;
17141;SDS011;32805;53.556;9.944;2022-12-08T00:46:54;17.02;;;12.43;;
17141;SDS011;32805;53.556;9.944;2022-12-08T00:49:22;19.52;;;12.75;;
17141;SDS011;32805;53.556;9.944;2022-12-08T00:51:50;16.10;;;11.32;;
17141;SDS011;32805;53.556;9.944;2022-12-08T00:54:18;19.83;;;12.25;;
17141;SDS011;32805;53.556;9.944;2022-12-08T00:56:46;17.08;;;12.63;;
17141;SDS011;32805;53.556;9.944;2022-12-08T00:59:14;16.52;;;11.75;;
17141;SDS011;32805;53.556;9.944;2022-12-08T01:01:43;13.70;;;10.88;;
17141;SDS011;32805;53.556;9.944;2022-12-08T01:04:13;16.95;;;12.05;;
17141;SDS011;32805;53.556;9.944;2022-12-08T01:06:43;14.75;;;11.50;;
17141;SDS011;32805;53.556;9.944;2022-12-08T01:09:12;13.80;;;10.82;;
17141;SDS011;32805;53.556;9.944;2022-12-08T01:11:40;12.98;;;10.10;;
17141;SDS011;32805;53.556;9.944;2022-12-08T01:14:09;15.00;;;11.20;;
17141;SDS011;32805;53.556;9.944;2022-12-08T01:16:38;13.00;;;10.32;;
17141;SDS011;32805;53.556;9.944;2022-12-08T01:19:09;14.30;;;9.50;;
17141;SDS011;32805;53.556;9.944;2022-12-08T01:21:38;15.70;;;9.30;;
17141;SDS011;32805;53.556;9.944;2022-12-08T01:24:08;16.33;;;10.13;;
17141;SDS011;32805;53.556;9.944;2022-12-08T01:26:37;15.95;;;9.43;;
17141;SDS011;32805;53.556;9.944;2022-12-08T01:29:08;11.48;;;8.38;;
17141;SDS011;32805;53.556;9.944;2022-12-08T01:31:36;16.38;;;10.05;;
17141;SDS011;32805;53.556;9.944;2022-12-08T01:34:04;13.38;;;8.85;;
17141;SDS011;32805;53.556;9.944;2022-12-08T01:36:34;11.60;;;8.80;;
17141;SDS011;32805;53.556;9.944;2022-12-08T01:39:05;12.02;;;9.20;;
17141;SDS011;32805;53.556;9.944;2022-12-08T01:41:35;11.55;;;9.30;;
17141;SDS011;32805;53.556;9.944;2022-12-08T01:47:04;12.48;;;9.00;;
17141;SDS011;32805;53.556;9.944;2022-12-08T01:49:32;11.77;;;9.25;;
17141;SDS011;32805;53.556;9.944;2022-12-08T01:52:05;13.13;;;9.65;;
17141;SDS011;32805;53.556;9.944;2022-12-08T01:54:41;11.07;;;7.97;;
17141;SDS011;32805;53.556;9.944;2022-12-08T01:57:12;11.60;;;8.23;;
17141;SDS011;32805;53.556;9.944;2022-12-08T01:59:43;9.18;;;7.43;;
17141;SDS011;32805;53.556;9.944;2022-12-08T02:02:14;10.45;;;8.07;;
17141;SDS011;32805;53.556;9.944;2022-12-08T02:04:42;10.02;;;7.63;;
17141;SDS011;32805;53.556;9.944;2022-12-08T02:07:12;11.02;;;7.95;;
17141;SDS011;32805;53.556;9.944;2022-12-08T02:09:41;8.40;;;6.68;;
17141;SDS011;32805;53.556;9.944;2022-12-08T02:12:10;9.25;;;6.60;;
17141;SDS011;32805;53.556;9.944;2022-12-08T02:14:38;8.77;;;6.82;;
17141;SDS011;32805;53.556;9.944;2022-12-08T02:17:09;9.98;;;7.22;;
17141;SDS011;32805;53.556;9.944;2022-12-08T02:20:01;11.10;;;7.75;;
17141;SDS011;32805;53.556;9.944;2022-12-08T02:22:45;12.70;;;8.15;;
17141;SDS011;32805;53.556;9.944;2022-12-08T02:25:23;10.88;;;7.72;;
17141;SDS011;32805;53.556;9.944;2022-12-08T02:27:59;11.27;;;8.02;;
17141;SDS011;32805;53.556;9.944;2022-12-08T02:30:37;10.98;;;7.30;;
17141;SDS011;32805;53.556;9.944;2022-12-08T02:33:23;10.98;;;7.40;;
17141;SDS011;32805;53.556;9.944;2022-12-08T02:36:04;10.30;;;7.63;;
17141;SDS011;32805;53.556;9.944;2022-12-08T02:38:41;8.95;;;6.75;;
17141;SDS011;32805;53.556;9.944;2022-12-08T02:41:18;8.35;;;6.72;;
17141;SDS011;32805;53.556;9.944;2022-12-08T02:43:53;10.70;;;7.57;;
17141;SDS011;32805;53.556;9.944;2022-12-08T02:46:26;9.82;;;7.18;;
17141;SDS011;32805;53.556;9.944;2022-12-08T02:48:58;10.32;;;6.82;;
17141;SDS011;32805;53.556;9.944;2022-12-08T02:51:28;10.15;;;6.70;;
17141;SDS011;32805;53.556;9.944;2022-12-08T02:53:56;10.98;;;7.20;;
17141;SDS011;32805;53.556;9.944;2022-12-08T02:56:32;11.07;;;6.47;;
17141;SDS011;32805;53.556;9.944;2022-12-08T02:59:18;8.18;;;6.43;;
17141;SDS011;32805;53.556;9.944;2022-12-08T03:02:03;8.57;;;6.18;;
17141;SDS011;32805;53.556;9.944;2022-12-08T03:04:48;8.43;;;6.15;;
17141;SDS011;32805;53.556;9.944;2022-12-08T03:07:25;8.07;;;5.93;;
17141;SDS011;32805;53.556;9.944;2022-12-08T03:09:59;9.30;;;6.43;;
17141;SDS011;32805;53.556;9.944;2022-12-08T03:12:32;7.70;;;5.95;;
17141;SDS011;32805;53.556;9.944;2022-12-08T03:15:05;8.27;;;5.65;;
17141;SDS011;32805;53.556;9.944;2022-12-08T03:17:35;7.72;;;5.80;;
17141;SDS011;32805;53.556;9.944;2022-12-08T03:20:09;7.40;;;5.05;;
17141;SDS011;32805;53.556;9.944;2022-12-08T03:22:40;8.45;;;5.50;;
17141;SDS011;32805;53.556;9.944;2022-12-08T03:25:11;6.82;;;4.90;;
17141;SDS011;32805;53.556;9.944;2022-12-08T03:27:41;6.93;;;5.15;;
17141;SDS011;32805;53.556;9.944;2022-12-08T03:30:10;6.95;;;5.13;;
17141;SDS011;32805;53.556;9.944;2022-12-08T03:32:39;6.85;;;5.40;;
17141;SDS011;32805;53.556;9.944;2022-12-08T03:35:16;6.13;;;4.82;;
17141;SDS011;32805;53.556;9.944;2022-12-08T03:37:45;6.15;;;4.65;;
17141;SDS011;32805;53.556;9.944;2022-12-08T03:40:14;4.90;;;4.18;;
17141;SDS011;32805;53.556;9.944;2022-12-08T03:42:42;7.38;;;4.53;;
17141;SDS011;32805;53.556;9.944;2022-12-08T03:45:10;5.05;;;4.53;;
17141;SDS011;32805;53.556;9.944;2022-12-08T03:47:38;7.18;;;4.70;;
17141;SDS011;32805;53.556;9.944;2022-12-08T03:50:06;7.25;;;4.75;;
17141;SDS011;32805;53.556;9.944;2022-12-08T03:52:36;6.07;;;4.65;;
17141;SDS011;32805;53.556;9.944;2022-12-08T03:55:04;5.72;;;4.38;;
17141;SDS011;32805;53.556;9.944;2022-12-08T03:57:32;4.82;;;4.28;;
17141;SDS011;32805;53.556;9.944;2022-12-08T04:00:00;5.65;;;4.10;;
17141;SDS011;32805;53.556;9.944;2022-12-08T04:02:30;8.63;;;4.30;;
17141;SDS011;32805;53.556;9.944;2022-12-08T04:04:58;7.85;;;4.32;;
17141;SDS011;32805;53.556;9.944;2022-12-08T04:07:25;5.05;;;3.90;;
17141;SDS011;32805;53.556;9.944;2022-12-08T04:09:55;4.78;;;3.95;;
17141;SDS011;32805;53.556;9.944;2022-12-08T04:12:22;4.82;;;3.95;;
17141;SDS011;32805;53.556;9.944;2022-12-08T04:14:50;4.78;;;3.42;;
17141;SDS011;32805;53.556;9.944;2022-12-08T04:17:18;3.53;;;2.78;;
17141;SDS011;32805;53.556;9.944;2022-12-08T04:19:46;3.28;;;2.38;;
17141;SDS011;32805;53.556;9.944;2022-12-08T04:22:13;3.20;;;2.90;;
17141;SDS011;32805;53.556;9.944;2022-12-08T04:24:41;2.85;;;2.13;;
17141;SDS011;32805;53.556;9.944;2022-12-08T04:27:10;3.13;;;2.42;;
17141;SDS011;32805;53.556;9.944;2022-12-08T04:29:39;6.90;;;3.35;;
17141;SDS011;32805;53.556;9.944;2022-12-08T04:32:06;3.65;;;2.30;;
17141;SDS011;32805;53.556;9.944;2022-12-08T04:34:34;2.03;;;1.80;;
17141;SDS011;32805;53.556;9.944;2022-12-08T04:37:02;2.40;;;2.17;;
17141;SDS011;32805;53.556;9.944;2022-12-08T04:39:29;3.03;;;2.40;;
17141;SDS011;32805;53.556;9.944;2022-12-08T04:41:57;5.15;;;3.10;;
17141;SDS011;32805;53.556;9.944;2022-12-08T04:44:26;3.80;;;3.30;;
17141;SDS011;32805;53.556;9.944;2022-12-08T04:46:54;9.52;;;4.57;;
17141;SDS011;32805;53.556;9.944;2022-12-08T04:49:22;4.63;;;3.47;;
17141;SDS011;32805;53.556;9.944;2022-12-08T04:51:49;3.38;;;3.08;;
17141;SDS011;32805;53.556;9.944;2022-12-08T04:54:17;4.10;;;3.38;;
17141;SDS011;32805;53.556;9.944;2022-12-08T04:56:45;3.00;;;2.60;;
17141;SDS011;32805;53.556;9.944;2022-12-08T04:59:12;5.13;;;2.63;;
17141;SDS011;32805;53.556;9.944;2022-12-08T05:01:41;3.72;;;2.95;;
17141;SDS011;32805;53.556;9.944;2022-12-08T05:04:09;4.93;;;3.10;;
17141;SDS011;32805;53.556;9.944;2022-12-08T05:06:37;4.18;;;2.70;;
17141;SDS011;32805;53.556;9.944;2022-12-08T05:09:05;3.50;;;2.97;;
17141;SDS011;32805;53.556;9.944;2022-12-08T05:11:32;3.85;;;3.10;;
17141;SDS011;32805;53.556;9.944;2022-12-08T05:14:00;4.72;;;3.05;;
17141;SDS011;32805;53.556;9.944;2022-12-08T05:16:28;4.30;;;2.80;;
17141;SDS011;32805;53.556;9.944;2022-12-08T05:18:57;3.25;;;2.45;;
17141;SDS011;32805;53.556;9.944;2022-12-08T05:21:25;3.22;;;2.92;;
17141;SDS011;32805;53.556;9.944;2022-12-08T05:23:53;4.82;;;3.08;;
17141;SDS011;32805;53.556;9.944;2022-12-08T05:26:21;4.80;;;2.85;;
17141;SDS011;32805;53.556;9.944;2022-12-08T05:28:49;5.47;;;3.35;;
17141;SDS011;32805;53.556;9.944;2022-12-08T05:31:17;6.45;;;3.08;;
17141;SDS011;32805;53.556;9.944;2022-12-08T05:33:45;2.40;;;2.20;;
17141;SDS011;32805;53.556;9.944;2022-12-08T05:36:14;3.88;;;2.72;;
17141;SDS011;32805;53.556;9.944;2022-12-08T05:38:43;2.85;;;2.50;;
17141;SDS011;32805;53.556;9.944;2022-12-08T05:41:12;2.38;;;2.17;;
17141;SDS011;32805;53.556;9.944;2022-12-08T05:43:41;3.45;;;2.50;;
17141;SDS011;32805;53.556;9.944;2022-12-08T05:46:09;3.53;;;2.25;;
17141;SDS011;32805;53.556;9.944;2022-12-08T05:48:39;2.15;;;1.95;;
17141;SDS011;32805;53.556;9.944;2022-12-08T05:51:11;2.70;;;2.50;;
17141;SDS011;32805;53.556;9.944;2022-12-08T05:53:44;2.85;;;2.55;;
17141;SDS011;32805;53.556;9.944;2022-12-08T05:56:13;2.75;;;2.55;;
17141;SDS011;32805;53.556;9.944;2022-12-08T05:58:43;2.30;;;2.10;;
17141;SDS011;32805;53.556;9.944;2022-12-08T06:01:18;2.60;;;2.40;;
17141;SDS011;32805;53.556;9.944;2022-12-08T06:03:49;2.40;;;2.20;;
17141;SDS011;32805;53.556;9.944;2022-12-08T06:06:20;2.30;;;2.10;;
17141;SDS011;32805;53.556;9.944;2022-12-08T06:08:48;2.55;;;2.22;;
17141;SDS011;32805;53.556;9.944;2022-12-08T06:12:48;2.10;;;1.90;;
17141;SDS011;32805;53.556;9.944;2022-12-08T06:15:35;1.92;;;1.73;;
17141;SDS011;32805;53.556;9.944;2022-12-08T06:18:24;2.60;;;2.22;;
17141;SDS011;32805;53.556;9.944;2022-12-08T06:21:19;2.20;;;2.00;;
17141;SDS011;32805;53.556;9.944;2022-12-08T06:24:10;2.42;;;2.22;;
17141;SDS011;32805;53.556;9.944;2022-12-08T14:49:34;8.57;;;5.00;;
17141;SDS011;32805;53.556;9.944;2022-12-08T14:52:07;9.32;;;5.53;;
17141;SDS011;32805;53.556;9.944;2022-12-08T14:54:36;10.70;;;5.75;;
17141;SDS011;32805;53.556;9.944;2022-12-08T14:57:05;8.48;;;5.75;;
17141;SDS011;32805;53.556;9.944;2022-12-08T14:59:34;5.35;;;4.80;;
17141;SDS011;32805;53.556;9.944;2022-12-08T15:02:11;9.73;;;5.82;;
17141;SDS011;32805;53.556;9.944;2022-12-08T15:04:48;11.27;;;7.55;;
17141;SDS011;32805;53.556;9.944;2022-12-08T15:07:24;6.90;;;5.13;;
17141;SDS011;32805;53.556;9.944;2022-12-08T15:10:06;6.00;;;4.35;;
17141;SDS011;32805;53.556;9.944;2022-12-08T15:12:55;5.93;;;4.60;;
17141;SDS011;32805;53.556;9.944;2022-12-08T15:15:29;6.28;;;4.28;;
17141;SDS011;32805;53.556;9.944;2022-12-08T15:18:01;8.25;;;4.90;;
17141;SDS011;32805;53.556;9.944;2022-12-08T15:20:38;4.05;;;3.58;;
17141;SDS011;32805;53.556;9.944;2022-12-08T15:23:17;5.57;;;3.97;;
17141;SDS011;32805;53.556;9.944;2022-12-08T15:25:52;7.85;;;4.63;;
17141;SDS011;32805;53.556;9.944;2022-12-08T15:28:21;6.43;;;4.45;;
17141;SDS011;32805;53.556;9.944;2022-12-08T15:30:55;4.90;;;4.43;;
17141;SDS011;32805;53.556;9.944;2022-12-08T15:33:25;7.85;;;4.45;;
17141;SDS011;32805;53.556;9.944;2022-12-08T15:35:53;9.18;;;4.82;;
17141;SDS011;32805;53.556;9.944;2022-12-08T15:38:21;4.97;;;4.10;;
17141;SDS011;32805;53.556;9.944;2022-12-08T15:40:51;13.18;;;5.78;;
17141;SDS011;32805;53.556;9.944;2022-12-08T15:43:18;7.25;;;4.90;;
17141;SDS011;32805;53.556;9.944;2022-12-08T15:45:47;8.98;;;4.07;;
17141;SDS011;32805;53.556;9.944;2022-12-08T15:48:26;5.80;;;4.05;;
17141;SDS011;32805;53.556;9.944;2022-12-08T15:50:56;9.30;;;5.50;;
17141;SDS011;32805;53.556;9.944;2022-12-08T15:53:24;7.75;;;4.85;;
17141;SDS011;32805;53.556;9.944;2022-12-08T15:55:52;10.73;;;6.57;;
17141;SDS011;32805;53.556;9.944;2022-12-08T15:58:40;20.25;;;7.93;;
17141;SDS011;32805;53.556;9.944;2022-12-08T16:01:27;11.48;;;6.07;;
17141;SDS011;32805;53.556;9.944;2022-12-08T16:03:56;8.95;;;5.68;;
17141;SDS011;32805;53.556;9.944;2022-12-08T16:06:45;6.63;;;4.80;;
17141;SDS011;32805;53.556;9.944;2022-12-08T16:09:35;6.13;;;5.15;;
17141;SDS011;32805;53.556;9.944;2022-12-08T16:12:09;8.98;;;4.95;;
17141;SDS011;32805;53.556;9.944;2022-12-08T16:15:18;21.30;;;8.82;;
17141;SDS011;32805;53.556;9.944;2022-12-08T16:18:06;15.48;;;7.63;;
17141;SDS011;32805;53.556;9.944;2022-12-08T16:20:41;16.23;;;7.05;;
17141;SDS011;32805;53.556;9.944;2022-12-08T16:23:33;21.95;;;8.45;;
17141;SDS011;32805;53.556;9.944;2022-12-08T16:26:11;11.18;;;6.95;;
17141;SDS011;32805;53.556;9.944;2022-12-08T16:29:03;42.90;;;13.60;;
17141;SDS011;32805;53.556;9.944;2022-12-08T16:31:39;8.82;;;7.00;;
17141;SDS011;32805;53.556;9.944;2022-12-08T16:34:11;12.13;;;8.00;;
17141;SDS011;32805;53.556;9.944;2022-12-08T16:36:46;12.20;;;8.15;;
17141;SDS011;32805;53.556;9.944;2022-12-08T16:39:17;13.73;;;9.18;;
17141;SDS011;32805;53.556;9.944;2022-12-08T16:41:48;23.92;;;11.02;;
17141;SDS011;32805;53.556;9.944;2022-12-08T16:44:35;22.40;;;12.25;;
17141;SDS011;32805;53.556;9.944;2022-12-08T16:47:06;21.73;;;11.93;;
17141;SDS011;32805;53.556;9.944;2022-12-08T16:49:39;15.50;;;10.25;;
17141;SDS011;32805;53.556;9.944;2022-12-08T16:52:08;25.35;;;12.57;;
17141;SDS011;32805;53.556;9.944;2022-12-08T16:54:36;20.75;;;10.98;;
17141;SDS011;32805;53.556;9.944;2022-12-08T16:57:04;15.80;;;11.07;;
17141;SDS011;32805;53.556;9.944;2022-12-08T16:59:31;26.05;;;13.05;;
17141;SDS011;32805;53.556;9.944;2022-12-08T17:01:59;48.58;;;16.83;;
17141;SDS011;32805;53.556;9.944;2022-12-08T17:04:41;25.45;;;12.15;;
17141;SDS011;32805;53.556;9.944;2022-12-08T17:07:15;19.58;;;11.07;;
17141;SDS011;32805;53.556;9.944;2022-12-08T17:09:43;14.15;;;9.65;;
17141;SDS011;32805;53.556;9.944;2022-12-08T17:12:11;14.32;;;9.13;;
17141;SDS011;32805;53.556;9.944;2022-12-08T17:14:40;15.38;;;9.27;;
17141;SDS011;32805;53.556;9.944;2022-12-08T17:17:08;14.43;;;8.82;;
17141;SDS011;32805;53.556;9.944;2022-12-08T17:19:41;17.08;;;9.85;;
17141;SDS011;32805;53.556;9.944;2022-12-08T17:22:09;24.98;;;11.80;;
17141;SDS011;32805;53.556;9.944;2022-12-08T17:27:29;15.95;;;9.38;;
17141;SDS011;32805;53.556;9.944;2022-12-08T17:29:57;16.20;;;9.82;;
17141;SDS011;32805;53.556;9.944;2022-12-08T17:32:28;14.73;;;9.55;;
17141;SDS011;32805;53.556;9.944;2022-12-08T17:34:56;15.88;;;8.98;;
17141;SDS011;32805;53.556;9.944;2022-12-08T17:37:27;16.05;;;9.93;;
17141;SDS011;32805;53.556;9.944;2022-12-08T17:39:56;15.63;;;10.32;;
17141;SDS011;32805;53.556;9.944;2022-12-08T17:42:24;17.25;;;10.45;;
17141;SDS011;32805;53.556;9.944;2022-12-08T17:44:53;17.58;;;9.85;;
17141;SDS011;32805;53.556;9.944;2022-12-08T17:47:21;20.23;;;11.88;;
17141;SDS011;32805;53.556;9.944;2022-12-08T17:49:53;16.50;;;10.80;;
17141;SDS011;32805;53.556;9.944;2022-12-08T17:52:22;19.05;;;11.38;;
17141;SDS011;32805;53.556;9.944;2022-12-08T17:54:50;17.67;;;10.88;;
17141;SDS011;32805;53.556;9.944;2022-12-08T17:57:19;18.95;;;12.48;;
17141;SDS011;32805;53.556;9.944;2022-12-08T17:59:49;20.17;;;11.45;;
17141;SDS011;32805;53.556;9.944;2022-12-08T18:02:18;18.95;;;12.05;;
17141;SDS011;32805;53.556;9.944;2022-12-08T18:04:46;19.10;;;11.20;;
17141;SDS011;32805;53.556;9.944;2022-12-08T18:07:13;22.42;;;13.88;;
17141;SDS011;32805;53.556;9.944;2022-12-08T18:09:41;17.95;;;11.52;;
17141;SDS011;32805;53.556;9.944;2022-12-08T18:12:09;21.73;;;12.82;;
17141;SDS011;32805;53.556;9.944;2022-12-08T18:14:38;29.25;;;14.90;;
17141;SDS011;32805;53.556;9.944;2022-12-08T18:17:05;22.63;;;12.60;;
17141;SDS011;32805;53.556;9.944;2022-12-08T18:19:33;20.80;;;12.07;;
17141;SDS011;32805;53.556;9.944;2022-12-08T18:22:03;23.25;;;13.07;;
17141;SDS011;32805;53.556;9.944;2022-12-08T18:24:31;24.75;;;12.43;;
17141;SDS011;32805;53.556;9.944;2022-12-08T18:26:59;30.40;;;14.70;;
17141;SDS011;32805;53.556;9.944;2022-12-08T18:29:27;25.17;;;13.85;;
17141;SDS011;32805;53.556;9.944;2022-12-08T18:31:56;27.77;;;15.52;;
17141;SDS011;32805;53.556;9.944;2022-12-08T18:34:24;23.17;;;13.60;;
17141;SDS011;32805;53.556;9.944;2022-12-08T18:36:51;22.17;;;13.13;;
17141;SDS011;32805;53.556;9.944;2022-12-08T18:39:20;21.73;;;13.70;;
17141;SDS011;32805;53.556;9.944;2022-12-08T18:41:52;25.05;;;13.10;;
17141;SDS011;32805;53.556;9.944;2022-12-08T18:44:20;24.55;;;14.23;;
17141;SDS011;32805;53.556;9.944;2022-12-08T18:46:48;19.77;;;12.32;;
17141;SDS011;32805;53.556;9.944;2022-12-08T18:49:18;25.90;;;13.80;;
17141;SDS011;32805;53.556;9.944;2022-12-08T18:51:46;20.27;;;12.05;;
17141;SDS011;32805;53.556;9.944;2022-12-08T18:54:25;22.38;;;13.90;;
17141;SDS011;32805;53.556;9.944;2022-12-08T18:57:13;19.98;;;12.40;;
17141;SDS011;32805;53.556;9.944;2022-12-08T18:59:45;22.35;;;12.60;;
17141;SDS011;32805;53.556;9.944;2022-12-08T19:02:16;21.95;;;13.40;;
17141;SDS011;32805;53.556;9.944;2022-12-08T19:04:46;24.85;;;12.98;;
17141;SDS011;32805;53.556;9.944;2022-12-08T19:07:14;19.20;;;11.95;;
17141;SDS011;32805;53.556;9.944;2022-12-08T19:09:43;26.52;;;12.98;;
17141;SDS011;32805;53.556;9.944;2022-12-08T19:12:14;25.95;;;15.00;;
17141;SDS011;32805;53.556;9.944;2022-12-08T19:14:45;20.63;;;12.90;;
17141;SDS011;32805;53.556;9.944;2022-12-08T19:17:13;19.48;;;12.60;;
17141;SDS011;32805;53.556;9.944;2022-12-08T19:19:41;19.00;;;11.52;;
17141;SDS011;32805;53.556;9.944;2022-12-08T19:22:10;21.80;;;12.63;;
17141;SDS011;32805;53.556;9.944;2022-12-08T19:24:38;24.05;;;13.48;;
17141;SDS011;32805;53.556;9.944;2022-12-08T19:27:06;22.85;;;13.15;;
17141;SDS011;32805;53.556;9.944;2022-12-08T19:29:34;24.40;;;12.90;;
17141;SDS011;32805;53.556;9.944;2022-12-08T19:32:02;22.60;;;12.27;;
17141;SDS011;32805;53.556;9.944;2022-12-08T19:34:31;22.58;;;13.02;;
17141;SDS011;32805;53.556;9.944;2022-12-08T19:37:03;20.30;;;11.82;;
17141;SDS011;32805;53.556;9.944;2022-12-08T19:39:46;21.27;;;11.85;;
17141;SDS011;32805;53.556;9.944;2022-12-08T19:42:45;23.35;;;12.73;;
17141;SDS011;32805;53.556;9.944;2022-12-08T19:45:41;23.33;;;12.82;;
17141;SDS011;32805;53.556;9.944;2022-12-08T19:48:27;21.15;;;11.85;;
17141;SDS011;32805;53.556;9.944;2022-12-08T19:51:06;21.05;;;12.57;;
17141;SDS011;32805;53.556;9.944;2022-12-08T19:53:43;25.45;;;13.77;;
17141;SDS011;32805;53.556;9.944;2022-12-08T19:56:31;27.35;;;14.88;;
17141;SDS011;32805;53.556;9.944;2022-12-08T19:59:01;28.40;;;15.07;;
17141;SDS011;32805;53.556;9.944;2022-12-08T20:01:35;26.58;;;14.15;;
17141;SDS011;32805;53.556;9.944;2022-12-08T20:04:33;23.88;;;13.40;;
17141;SDS011;32805;53.556;9.944;2022-12-08T20:07:04;23.08;;;12.43;;
17141;SDS011;32805;53.556;9.944;2022-12-08T20:09:35;27.95;;;14.60;;
17141;SDS011;32805;53.556;9.944;2022-12-08T20:15:02;23.90;;;14.32;;
17141;SDS011;32805;53.556;9.944;2022-12-08T20:17:31;24.67;;;14.20;;
17141;SDS011;32805;53.556;9.944;2022-12-08T20:20:05;30.30;;;16.00;;
17141;SDS011;32805;53.556;9.944;2022-12-08T20:22:35;34.42;;;16.85;;
17141;SDS011;32805;53.556;9.944;2022-12-08T20:25:03;31.48;;;16.65;;
17141;SDS011;32805;53.556;9.944;2022-12-08T20:27:33;34.15;;;15.75;;
17141;SDS011;32805;53.556;9.944;2022-12-08T20:30:01;36.22;;;15.40;;
17141;SDS011;32805;53.556;9.944;2022-12-08T20:32:29;30.60;;;15.32;;
17141;SDS011;32805;53.556;9.944;2022-12-08T20:35:14;43.60;;;16.65;;
17141;SDS011;32805;53.556;9.944;2022-12-08T20:37:42;64.30;;;14.10;;
17141;SDS011;32805;53.556;9.944;2022-12-08T20:40:10;49.60;;;15.07;;
17141;SDS011;32805;53.556;9.944;2022-12-08T20:42:40;37.38;;;14.52;;
17141;SDS011;32805;53.556;9.944;2022-12-08T20:45:08;48.47;;;14.57;;
17141;SDS011;32805;53.556;9.944;2022-12-08T20:47:36;46.03;;;14.55;;
17141;SDS011;32805;53.556;9.944;2022-12-08T20:50:05;48.70;;;13.77;;
17141;SDS011;32805;53.556;9.944;2022-12-08T20:52:34;58.05;;;18.20;;
17141;SDS011;32805;53.556;9.944;2022-12-08T20:55:04;47.17;;;17.08;;
17141;SDS011;32805;53.556;9.944;2022-12-08T20:57:33;31.58;;;15.57;;
17141;SDS011;32805;53.556;9.944;2022-12-08T21:00:04;54.70;;;15.98;;
17141;SDS011;32805;53.556;9.944;2022-12-08T21:02:36;33.33;;;12.82;;
17141;SDS011;32805;53.556;9.944;2022-12-08T21:05:12;43.70;;;14.32;;
17141;SDS011;32805;53.556;9.944;2022-12-08T21:07:40;41.03;;;15.00;;
17141;SDS011;32805;53.556;9.944;2022-12-08T21:10:08;63.78;;;13.48;;
17141;SDS011;32805;53.556;9.944;2022-12-08T21:12:37;41.97;;;13.18;;
17141;SDS011;32805;53.556;9.944;2022-12-08T21:15:10;28.98;;;12.55;;
17141;SDS011;32805;53.556;9.944;2022-12-08T21:17:38;31.75;;;12.93;;
17141;SDS011;32805;53.556;9.944;2022-12-08T21:20:07;33.50;;;12.05;;
17141;SDS011;32805;53.556;9.944;2022-12-08T21:22:37;35.22;;;13.15;;
17141;SDS011;32805;53.556;9.944;2022-12-08T21:25:07;26.38;;;12.25;;
17141;SDS011;32805;53.556;9.944;2022-12-08T21:27:35;35.13;;;13.07;;
17141;SDS011;32805;53.556;9.944;2022-12-08T21:30:04;30.05;;;12.50;;
17141;SDS011;32805;53.556;9.944;2022-12-08T21:32:37;37.22;;;13.25;;
17141;SDS011;32805;53.556;9.944;2022-12-08T21:35:06;27.60;;;12.13;;
17141;SDS011;32805;53.556;9.944;2022-12-08T21:37:35;30.83;;;12.63;;
17141;SDS011;32805;53.556;9.944;2022-12-08T21:40:13;42.42;;;13.35;;
17141;SDS011;32805;53.556;9.944;2022-12-08T21:42:49;30.20;;;12.45;;
17141;SDS011;32805;53.556;9.944;2022-12-08T21:45:45;27.50;;;12.48;;
17141;SDS011;32805;53.556;9.944;2022-12-08T21:48:20;35.38;;;12.77;;
17141;SDS011;32805;53.556;9.944;2022-12-08T21:50:48;28.10;;;13.75;;
17141;SDS011;32805;53.556;9.944;2022-12-08T21:53:18;30.27;;;12.50;;
17141;SDS011;32805;53.556;9.944;2022-12-08T21:55:46;34.15;;;13.85;;
17141;SDS011;32805;53.556;9.944;2022-12-08T21:58:19;29.23;;;13.10;;
17141;SDS011;32805;53.556;9.944;2022-12-08T22:00:59;27.08;;;13.75;;
17141;SDS011;32805;53.556;9.944;2022-12-08T22:04:08;32.00;;;15.52;;
17141;SDS011;32805;53.556;9.944;2022-12-08T22:07:16;36.17;;;15.35;;
17141;SDS011;32805;53.556;9.944;2022-12-08T22:10:22;29.67;;;15.18;;
17141;SDS011;32805;53.556;9.944;2022-12-08T22:12:50;33.55;;;15.93;;
17141;SDS011;32805;53.556;9.944;2022-12-08T22:15:19;29.38;;;14.60;;
17141;SDS011;32805;53.556;9.944;2022-12-08T22:17:48;41.08;;;16.25;;
17141;SDS011;32805;53.556;9.944;2022-12-08T22:20:23;39.05;;;17.85;;
17141;SDS011;32805;53.556;9.944;2022-12-08T22:22:53;33.90;;;16.40;;
17141;SDS011;32805;53.556;9.944;2022-12-08T22:25:22;30.42;;;15.10;;
17141;SDS011;32805;53.556;9.944;2022-12-08T22:27:50;40.33;;;15.95;;
17141;SDS011;32805;53.556;9.944;2022-12-08T22:30:19;30.02;;;15.05;;
17141;SDS011;32805;53.556;9.944;2022-12-08T22:32:50;34.90;;;14.68;;
17141;SDS011;32805;53.556;9.944;2022-12-08T22:35:18;24.83;;;13.57;;
17141;SDS011;32805;53.556;9.944;2022-12-08T22:37:50;27.88;;;13.98;;
17141;SDS011;32805;53.556;9.944;2022-12-08T22:40:23;27.15;;;13.82;;
17141;SDS011;32805;53.556;9.944;2022-12-08T22:42:54;29.77;;;15.13;;
17141;SDS011;32805;53.556;9.944;2022-12-08T22:45:25;27.92;;;14.38;;
17141;SDS011;32805;53.556;9.944;2022-12-08T22:47:53;31.48;;;14.68;;
17141;SDS011;32805;53.556;9.944;2022-12-08T22:50:21;29.88;;;15.05;;
17141;SDS011;32805;53.556;9.944;2022-12-08T22:52:52;25.52;;;13.60;;
17141;SDS011;32805;53.556;9.944;2022-12-08T22:55:22;30.63;;;14.75;;
17141;SDS011;32805;53.556;9.944;2022-12-08T22:57:50;25.70;;;13.43;;
17141;SDS011;32805;53.556;9.944;2022-12-08T23:00:19;26.63;;;14.20;;
17141;SDS011;32805;53.556;9.944;2022-12-08T23:02:47;24.05;;;12.93;;
17141;SDS011;32805;53.556;9.944;2022-12-08T23:05:15;31.17;;;12.05;;
17141;SDS011;32805;53.556;9.944;2022-12-08T23:07:44;19.13;;;11.45;;
17141;SDS011;32805;53.556;9.944;2022-12-08T23:10:13;29.00;;;12.88;;
17141;SDS011;32805;53.556;9.944;2022-12-08T23:12:41;22.77;;;11.65;;
17141;SDS011;32805;53.556;9.944;2022-12-08T23:15:10;19.85;;;11.38;;
17141;SDS011;32805;53.556;9.944;2022-12-08T23:17:41;24.77;;;12.70;;
17141;SDS011;32805;53.556;9.944;2022-12-08T23:20:16;22.75;;;12.73;;
17141;SDS011;32805;53.556;9.944;2022-12-08T23:22:45;23.58;;;13.95;;
17141;SDS011;32805;53.556;9.944;2022-12-08T23:25:17;26.75;;;13.57;;
17141;SDS011;32805;53.556;9.944;2022-12-08T23:27:45;25.60;;;14.45;;
17141;SDS011;32805;53.556;9.944;2022-12-08T23:30:16;27.10;;;14.88;;
17141;SDS011;32805;53.556;9.944;2022-12-08T23:32:55;27.67;;;14.73;;